createdAt,value
2022-10-23T00:00:51.355Z,3.25
2022-10-23T00:03:19.027Z,5.50
2022-10-23T00:05:46.635Z,5.00
2022-10-23T00:08:14.267Z,3.00
2022-10-23T00:10:41.900Z,3.75
2022-10-23T00:13:09.464Z,1.50
2022-10-23T00:15:37.521Z,6.00
2022-10-23T00:18:05.734Z,4.00
2022-10-23T00:20:33.335Z,4.00
2022-10-23T00:23:00.877Z,4.00
2022-10-23T00:25:28.565Z,4.00
2022-10-23T00:27:56.195Z,4.50
2022-10-23T00:30:24.312Z,4.00
2022-10-23T00:32:51.928Z,4.50
2022-10-23T00:35:19.482Z,4.00
2022-10-23T00:37:47.492Z,4.00
2022-10-23T00:40:15.087Z,4.00
2022-10-23T00:42:43.461Z,2.00
2022-10-23T00:45:11.112Z,4.00
2022-10-23T00:47:38.707Z,4.00
2022-10-23T00:50:06.287Z,4.50
2022-10-23T00:52:33.808Z,4.00
2022-10-23T00:55:01.717Z,4.00
2022-10-23T01:00:01.857Z,6.00
2022-10-23T01:02:29.496Z,4.00
2022-10-23T01:04:57.220Z,5.00
2022-10-23T01:07:25.209Z,4.00
2022-10-23T01:09:52.797Z,6.25
2022-10-23T01:12:20.340Z,6.25
2022-10-23T01:14:47.879Z,5.50
2022-10-23T01:17:15.438Z,6.00
2022-10-23T01:19:43.560Z,6.50
2022-10-23T01:22:11.517Z,6.50
2022-10-23T01:24:39.185Z,4.00
2022-10-23T01:27:06.772Z,3.75
2022-10-23T01:29:34.325Z,4.00
2022-10-23T01:32:02.635Z,4.00
2022-10-23T01:34:30.195Z,4.00
2022-10-23T01:36:57.752Z,3.00
2022-10-23T01:39:25.344Z,6.00
2022-10-23T01:41:52.898Z,3.75
2022-10-23T01:44:22.356Z,3.00
2022-10-23T01:46:49.907Z,4.50
2022-10-23T01:49:17.445Z,3.00
2022-10-23T01:51:44.992Z,2.00
2022-10-23T01:54:12.592Z,3.00
2022-10-23T01:56:40.328Z,3.00
2022-10-23T01:59:07.867Z,3.00
2022-10-23T02:01:35.585Z,3.00
2022-10-23T02:04:03.281Z,6.00
2022-10-23T02:06:31.163Z,5.00
2022-10-23T02:08:59.313Z,4.00
2022-10-23T02:11:26.934Z,4.00
2022-10-23T02:13:55.520Z,6.00
2022-10-23T02:16:23.115Z,3.75
2022-10-23T02:18:50.637Z,6.50
2022-10-23T02:21:18.379Z,4.00
2022-10-23T02:23:45.961Z,5.50
2022-10-23T02:26:13.541Z,5.50
2022-10-23T02:28:41.091Z,6.75
2022-10-23T02:31:08.662Z,3.75
2022-10-23T02:33:36.527Z,3.25
2022-10-23T02:36:04.082Z,4.00
2022-10-23T02:38:31.668Z,5.50
2022-10-23T02:40:59.189Z,0.00
2022-10-23T02:43:26.744Z,3.00
2022-10-23T02:45:54.927Z,3.00
2022-10-23T02:48:22.549Z,1.00
2022-10-23T02:50:50.565Z,3.00
2022-10-23T02:53:18.165Z,3.00
2022-10-23T02:55:45.720Z,1.00
2022-10-23T02:58:13.537Z,2.00
2022-10-23T03:00:41.144Z,3.00
2022-10-23T03:03:08.687Z,3.00
2022-10-23T03:05:36.271Z,1.00
2022-10-23T03:08:03.864Z,0.25
2022-10-23T03:10:31.738Z,0.00
2022-10-23T03:12:59.705Z,1.00
2022-10-23T03:15:27.267Z,1.00
2022-10-23T03:17:54.816Z,1.50
2022-10-23T03:20:22.467Z,1.50
2022-10-23T03:22:50.388Z,1.00
2022-10-23T03:25:17.965Z,2.00
2022-10-23T03:27:45.529Z,3.00
2022-10-23T03:30:13.274Z,3.00
2022-10-23T03:32:41.902Z,1.00
2022-10-23T03:35:11.689Z,3.00
2022-10-23T03:37:39.273Z,3.00
2022-10-23T03:40:06.903Z,1.50
2022-10-23T03:42:34.459Z,1.00
2022-10-23T03:45:02.065Z,3.00
2022-10-23T03:47:30.532Z,1.00
2022-10-23T03:49:58.080Z,1.00
2022-10-23T03:52:25.699Z,1.00
2022-10-23T03:54:53.263Z,1.00
2022-10-23T03:57:20.784Z,1.00
2022-10-23T03:59:48.881Z,3.00
2022-10-23T04:02:16.508Z,1.00
2022-10-23T04:04:44.072Z,1.00
2022-10-23T04:07:11.657Z,1.00
2022-10-23T04:09:39.244Z,1.00
2022-10-23T04:12:07.155Z,3.00
2022-10-23T04:14:34.748Z,1.00
2022-10-23T04:17:02.836Z,1.00
2022-10-23T04:19:30.371Z,3.00
2022-10-23T04:21:58.336Z,3.25
2022-10-23T04:24:26.203Z,3.00
2022-10-23T04:26:53.779Z,3.50
2022-10-23T04:29:23.098Z,3.00
2022-10-23T04:31:51.449Z,3.75
2022-10-23T04:34:19.034Z,3.50
2022-10-23T04:36:47.153Z,4.00
2022-10-23T04:39:15.073Z,4.00
2022-10-23T04:41:42.662Z,3.50
2022-10-23T04:44:10.268Z,2.50
2022-10-23T04:46:37.828Z,3.00
2022-10-23T04:49:05.710Z,3.50
2022-10-23T04:51:33.318Z,3.00
2022-10-23T04:54:00.912Z,3.50
2022-10-23T04:56:28.526Z,3.25
2022-10-23T04:58:56.190Z,3.00
2022-10-23T05:01:24.484Z,3.00
2022-10-23T05:03:54.088Z,3.00
2022-10-23T05:06:21.713Z,3.25
2022-10-23T05:08:49.260Z,3.00
2022-10-23T05:11:16.816Z,4.00
2022-10-23T05:13:44.970Z,3.50
2022-10-23T05:16:12.576Z,3.00
2022-10-23T05:18:40.128Z,3.00
2022-10-23T05:21:07.723Z,3.50
2022-10-23T05:23:35.603Z,3.50
2022-10-23T05:26:04.584Z,1.50
2022-10-23T05:28:32.187Z,4.50
2022-10-23T05:31:00.160Z,3.50
2022-10-23T05:33:27.690Z,1.50
2022-10-23T05:35:55.281Z,4.00
2022-10-23T05:38:23.400Z,2.00
2022-10-23T05:40:50.970Z,3.00
2022-10-23T05:43:18.571Z,3.00
2022-10-23T05:45:46.436Z,3.50
2022-10-23T05:48:29.852Z,3.50
2022-10-23T05:51:01.520Z,3.50
2022-10-23T05:53:29.109Z,3.25
2022-10-23T05:55:56.652Z,3.00
2022-10-23T05:58:24.264Z,1.00
2022-10-23T06:00:51.820Z,3.00
2022-10-23T06:03:19.559Z,3.00
2022-10-23T06:05:47.652Z,3.25
2022-10-23T06:08:15.218Z,3.75
2022-10-23T06:10:42.756Z,0.00
2022-10-23T06:13:10.390Z,1.00
2022-10-23T06:15:38.803Z,3.25
2022-10-23T06:18:06.401Z,0.50
2022-10-23T06:20:34.017Z,3.00
2022-10-23T06:23:01.580Z,3.50
2022-10-23T06:25:29.145Z,1.50
2022-10-23T06:27:57.295Z,1.00
2022-10-23T06:30:24.969Z,1.00
2022-10-23T06:32:52.585Z,3.00
2022-10-23T06:35:20.205Z,1.50
2022-10-23T06:37:47.799Z,1.00
2022-10-23T06:40:15.990Z,1.50
2022-10-23T06:42:43.920Z,1.50
2022-10-23T06:45:11.626Z,1.00
2022-10-23T06:47:39.495Z,1.00
2022-10-23T06:50:10.572Z,1.00
2022-10-23T06:52:47.152Z,1.00
2022-10-23T06:55:15.417Z,1.00
2022-10-23T06:57:43.228Z,0.75
2022-10-23T07:00:11.055Z,2.50
2022-10-23T07:02:38.680Z,1.00
2022-10-23T07:05:08.832Z,1.00
2022-10-23T07:07:40.721Z,0.00
2022-10-23T07:10:08.334Z,0.50
2022-10-23T07:12:35.985Z,0.75
2022-10-23T07:15:03.755Z,1.00
2022-10-23T07:17:31.727Z,0.00
2022-10-23T07:19:59.401Z,1.00
2022-10-23T07:22:27.143Z,0.50
2022-10-23T07:24:54.881Z,0.50
2022-10-23T07:27:22.507Z,1.00
2022-10-23T07:29:50.528Z,1.00
2022-10-23T07:32:18.224Z,1.00
2022-10-23T07:34:45.954Z,3.00
2022-10-23T07:37:13.687Z,1.50
2022-10-23T07:39:41.393Z,1.00
2022-10-23T07:42:09.709Z,1.00
2022-10-23T07:44:37.470Z,0.00
2022-10-23T07:47:05.153Z,1.00
2022-10-23T07:49:32.901Z,1.00
2022-10-23T07:52:01.017Z,1.00
2022-10-23T07:54:29.403Z,0.00
2022-10-23T07:56:57.142Z,1.00
2022-10-23T07:59:24.974Z,1.80
2022-10-23T08:01:55.819Z,0.00
2022-10-23T08:04:25.099Z,0.00
2022-10-23T08:06:53.986Z,3.00
2022-10-23T08:09:21.628Z,3.75
2022-10-23T08:11:49.546Z,1.00
2022-10-23T08:14:17.735Z,3.20
2022-10-23T08:16:45.473Z,1.00
2022-10-23T08:19:13.436Z,3.00
2022-10-23T08:21:41.217Z,3.00
2022-10-23T08:24:13.446Z,0.20
2022-10-23T08:26:41.269Z,6.00
2022-10-23T08:29:09.174Z,4.00
2022-10-23T08:31:38.081Z,4.00
2022-10-23T08:34:06.003Z,0.00
2022-10-23T08:36:34.295Z,4.00
2022-10-23T08:39:02.105Z,3.00
2022-10-23T08:41:29.831Z,3.80
2022-10-23T08:43:58.473Z,3.60
2022-10-23T08:46:26.189Z,4.40
2022-10-23T08:48:54.039Z,3.60
2022-10-23T08:51:21.845Z,3.00
2022-10-23T08:53:49.574Z,6.00
2022-10-23T08:56:18.071Z,5.60
2022-10-23T08:58:46.353Z,3.80
2022-10-23T09:01:14.389Z,1.80
2022-10-23T09:03:42.194Z,3.40
2022-10-23T09:06:10.027Z,3.80
2022-10-23T09:08:37.998Z,4.00
2022-10-23T09:11:05.831Z,4.00
2022-10-23T09:13:33.663Z,3.40
2022-10-23T09:16:01.466Z,2.60
2022-10-23T09:18:29.235Z,1.00
2022-10-23T09:20:58.110Z,1.00
2022-10-23T09:23:25.951Z,0.80
2022-10-23T09:25:57.221Z,0.80
2022-10-23T09:28:25.161Z,0.00
2022-10-23T09:30:53.481Z,0.20
2022-10-23T09:33:22.229Z,0.00
2022-10-23T09:35:49.955Z,0.00
2022-10-23T09:38:17.808Z,0.00
2022-10-23T09:40:45.487Z,0.60
2022-10-23T09:43:13.346Z,0.80
2022-10-23T09:45:43.234Z,0.00
2022-10-23T09:48:11.080Z,0.00
2022-10-23T09:50:38.898Z,0.00
2022-10-23T09:53:06.695Z,1.00
2022-10-23T09:55:34.568Z,1.00
2022-10-23T09:58:02.848Z,1.00
2022-10-23T10:00:30.643Z,0.80
2022-10-23T10:02:58.923Z,1.00
2022-10-23T10:05:26.786Z,0.20
2022-10-23T10:07:54.667Z,0.00
2022-10-23T10:10:22.707Z,0.00
2022-10-23T10:12:50.603Z,0.20
2022-10-23T10:15:18.379Z,0.00
2022-10-23T10:17:46.279Z,0.00
2022-10-23T10:20:14.306Z,0.00
2022-10-23T10:22:42.793Z,0.20
2022-10-23T10:25:10.905Z,0.20
2022-10-23T10:27:38.765Z,0.00
2022-10-23T10:30:06.474Z,0.00
2022-10-23T10:32:34.293Z,0.60
2022-10-23T10:35:02.528Z,0.00
2022-10-23T10:37:30.245Z,0.60
2022-10-23T10:39:58.145Z,0.60
2022-10-23T10:42:26.011Z,0.00
2022-10-23T10:44:53.926Z,1.00
2022-10-23T10:47:24.916Z,0.00
2022-10-23T10:49:52.772Z,0.00
2022-10-23T10:52:20.640Z,0.00
2022-10-23T10:54:48.442Z,0.20
2022-10-23T10:57:16.352Z,0.80
2022-10-23T10:59:44.649Z,1.00
2022-10-23T11:02:12.922Z,0.00
2022-10-23T11:04:40.920Z,1.00
2022-10-23T11:07:08.779Z,1.00
2022-10-23T11:09:36.946Z,0.00
2022-10-23T11:12:05.805Z,1.00
2022-10-23T11:14:33.968Z,0.00
2022-10-23T11:17:01.831Z,1.00
2022-10-23T11:19:29.803Z,0.00
2022-10-23T11:21:57.548Z,0.80
2022-10-23T11:24:26.111Z,1.00
2022-10-23T11:26:53.978Z,0.40
2022-10-23T11:29:21.897Z,1.00
2022-10-23T11:31:50.216Z,0.00
2022-10-23T11:34:18.160Z,1.00
2022-10-23T11:36:46.461Z,1.00
2022-10-23T11:39:14.197Z,0.00
2022-10-23T11:41:42.055Z,0.00
2022-10-23T11:44:10.004Z,1.00
2022-10-23T11:46:38.448Z,1.00
2022-10-23T11:49:06.655Z,0.80
2022-10-23T11:51:34.603Z,1.00
2022-10-23T11:54:02.823Z,1.00
2022-10-23T11:56:31.546Z,1.00
2022-10-23T11:58:59.373Z,0.00
2022-10-23T12:01:28.132Z,1.00
2022-10-23T12:03:55.996Z,0.60
2022-10-23T12:06:24.269Z,1.00
2022-10-23T12:08:52.073Z,1.00
2022-10-23T12:11:21.639Z,1.00
2022-10-23T12:13:52.364Z,1.00
2022-10-23T12:16:20.467Z,0.20
2022-10-23T12:18:48.346Z,1.00
2022-10-23T12:21:16.110Z,1.00
2022-10-23T12:23:47.272Z,1.00
2022-10-23T12:26:16.925Z,0.00
2022-10-23T12:28:44.982Z,0.20
2022-10-23T12:31:12.855Z,1.00
2022-10-23T12:33:40.702Z,1.00
2022-10-23T12:36:08.686Z,0.00
2022-10-23T12:38:40.573Z,1.00
2022-10-23T12:41:08.518Z,1.00
2022-10-23T12:43:36.435Z,0.00
2022-10-23T12:46:04.275Z,0.40
2022-10-23T12:48:32.081Z,1.00
2022-10-23T12:51:00.455Z,0.00
2022-10-23T12:53:28.362Z,1.00
2022-10-23T12:55:56.304Z,1.00
2022-10-23T12:58:24.173Z,0.00
2022-10-23T13:00:52.099Z,1.00
2022-10-23T13:03:20.404Z,1.00
2022-10-23T13:05:48.251Z,0.00
2022-10-23T13:08:16.103Z,1.00
2022-10-23T13:10:44.054Z,1.00
2022-10-23T13:13:11.836Z,1.00
2022-10-23T13:15:40.550Z,0.80
2022-10-23T13:18:08.561Z,0.40
2022-10-23T13:20:37.100Z,0.80
2022-10-23T13:23:05.367Z,1.00
2022-10-23T13:25:33.353Z,1.00
2022-10-23T13:28:01.853Z,0.00
2022-10-23T13:30:29.778Z,1.00
2022-10-23T13:32:57.757Z,1.00
2022-10-23T13:35:25.483Z,1.00
2022-10-23T13:37:53.269Z,1.00
2022-10-23T13:40:22.922Z,1.40
2022-10-23T13:42:51.184Z,1.40
2022-10-23T13:45:19.561Z,1.80
2022-10-23T13:47:47.567Z,0.60
2022-10-23T13:50:15.458Z,1.00
2022-10-23T13:52:43.613Z,1.00
2022-10-23T13:55:11.462Z,1.40
2022-10-23T13:57:39.474Z,1.00
2022-10-23T14:00:07.336Z,1.00
2022-10-23T14:02:35.240Z,1.00
2022-10-23T14:05:03.795Z,0.40
2022-10-23T14:07:32.146Z,1.00
2022-10-23T14:09:59.936Z,1.00
2022-10-23T14:12:27.795Z,1.00
2022-10-23T14:14:55.585Z,1.00
2022-10-23T14:17:24.168Z,0.00
2022-10-23T14:19:52.235Z,1.40
2022-10-23T14:22:20.183Z,1.00
2022-10-23T14:24:48.182Z,2.00
2022-10-23T14:27:16.071Z,0.00
2022-10-23T14:29:44.432Z,1.00
2022-10-23T14:32:12.339Z,1.40
2022-10-23T14:34:40.987Z,1.00
2022-10-23T14:37:09.501Z,1.80
2022-10-23T14:39:37.599Z,1.00
2022-10-23T14:42:06.113Z,1.00
2022-10-23T14:44:33.929Z,0.00
2022-10-23T14:47:03.236Z,2.00
2022-10-23T14:49:31.151Z,1.00
2022-10-23T14:51:59.502Z,2.00
2022-10-23T14:54:29.902Z,0.20
2022-10-23T14:56:57.910Z,1.00
2022-10-23T14:59:25.762Z,1.00
2022-10-23T15:04:26.467Z,2.00
2022-10-23T15:06:55.082Z,1.60
2022-10-23T15:09:23.049Z,1.00
2022-10-23T15:11:51.126Z,2.00
2022-10-23T15:14:20.278Z,1.00
2022-10-23T15:16:48.659Z,1.40
2022-10-23T15:19:18.788Z,1.00
2022-10-23T15:21:46.945Z,1.00
2022-10-23T15:24:14.811Z,1.00
2022-10-23T15:26:43.540Z,1.60
2022-10-23T15:29:11.592Z,1.20
2022-10-23T15:31:41.071Z,1.00
2022-10-23T15:34:09.044Z,1.00
2022-10-23T15:36:37.209Z,1.60
2022-10-23T15:39:05.083Z,2.20
2022-10-23T15:41:33.084Z,0.60
2022-10-23T15:44:01.789Z,1.00
2022-10-23T15:46:29.621Z,2.20
2022-10-23T15:48:57.639Z,1.00
2022-10-23T15:51:25.422Z,2.20
2022-10-23T15:53:53.294Z,2.20
2022-10-23T15:56:21.936Z,2.20
2022-10-23T15:58:49.771Z,1.00
2022-10-23T16:01:17.818Z,1.00
2022-10-23T16:03:46.004Z,1.00
2022-10-23T16:06:13.940Z,1.80
2022-10-23T16:08:44.563Z,1.00
2022-10-23T16:11:12.539Z,1.00
2022-10-23T16:13:40.334Z,1.00
2022-10-23T16:16:08.207Z,1.80
2022-10-23T16:18:36.068Z,0.00
2022-10-23T16:21:05.135Z,3.00
2022-10-23T16:23:33.546Z,5.60
2022-10-23T16:26:01.610Z,8.20
2022-10-23T16:28:29.482Z,1.00
2022-10-23T16:30:57.361Z,1.00
2022-10-23T16:33:25.758Z,1.00
2022-10-23T16:35:53.766Z,10.40
2022-10-23T16:38:21.582Z,6.60
2022-10-23T16:40:49.515Z,4.00
2022-10-23T16:43:17.460Z,1.40
2022-10-23T16:45:45.892Z,3.00
2022-10-23T16:48:13.820Z,3.40
2022-10-23T16:50:41.693Z,4.00
2022-10-23T16:53:09.532Z,1.00
2022-10-23T16:55:37.414Z,1.00
2022-10-23T16:58:06.053Z,1.40
2022-10-23T17:00:35.559Z,1.00
2022-10-23T17:03:03.890Z,2.20
2022-10-23T17:05:31.742Z,9.00
2022-10-23T17:07:59.577Z,2.60
2022-10-23T17:10:28.208Z,3.00
2022-10-23T17:12:56.201Z,2.60
2022-10-23T17:15:24.215Z,3.80
2022-10-23T17:17:52.256Z,1.00
2022-10-23T17:20:19.982Z,1.80
2022-10-23T17:22:48.347Z,3.00
2022-10-23T17:25:16.575Z,3.00
2022-10-23T17:27:44.582Z,1.00
2022-10-23T17:30:12.933Z,1.00
2022-10-23T17:32:41.275Z,1.40
2022-10-23T17:35:10.020Z,6.80
2022-10-23T17:37:37.882Z,3.60
2022-10-23T17:40:07.028Z,3.40
2022-10-23T17:42:35.026Z,3.00
2022-10-23T17:45:02.873Z,4.80
2022-10-23T17:47:33.015Z,3.00
2022-10-23T17:50:00.797Z,3.80
2022-10-23T17:52:28.578Z,4.40
2022-10-23T17:54:56.592Z,1.00
2022-10-23T17:57:24.419Z,3.00
2022-10-23T17:59:52.926Z,4.00
2022-10-23T18:02:20.989Z,3.00
2022-10-23T18:04:48.917Z,1.00
2022-10-23T18:07:16.760Z,3.00
2022-10-23T18:09:44.945Z,3.00
2022-10-23T18:12:13.622Z,3.00
2022-10-23T18:14:41.527Z,1.00
2022-10-23T18:17:09.414Z,6.40
2022-10-23T18:19:37.197Z,6.75
2022-10-23T18:22:05.040Z,5.20
2022-10-23T18:24:33.359Z,6.00
2022-10-23T18:27:01.260Z,3.20
2022-10-23T18:29:29.166Z,7.00
2022-10-23T18:31:59.695Z,2.20
2022-10-23T18:34:27.603Z,3.20
2022-10-23T18:36:55.906Z,6.50
2022-10-23T18:39:23.801Z,4.00
2022-10-23T18:41:51.621Z,6.80
2022-10-23T18:44:19.560Z,6.00
2022-10-23T18:46:47.546Z,4.00
2022-10-23T18:49:16.005Z,3.00
2022-10-23T18:51:43.842Z,6.25
2022-10-23T18:54:12.153Z,3.40
2022-10-23T18:56:40.125Z,1.00
2022-10-23T18:59:07.982Z,1.40
2022-10-23T19:01:36.330Z,1.00
2022-10-23T19:04:04.216Z,1.00
2022-10-23T19:06:31.995Z,0.60
2022-10-23T19:08:59.903Z,0.60
2022-10-23T19:11:27.959Z,3.00
2022-10-23T19:13:56.558Z,1.00
2022-10-23T19:16:24.818Z,1.00
2022-10-23T19:18:52.687Z,1.00
2022-10-23T19:21:20.702Z,1.00
2022-10-23T19:23:48.513Z,0.80
2022-10-23T19:26:16.910Z,0.40
2022-10-23T19:28:44.782Z,0.00
2022-10-23T19:31:12.799Z,0.00
2022-10-23T19:33:40.668Z,0.00
2022-10-23T19:36:12.646Z,0.40
2022-10-23T19:38:43.560Z,0.00
2022-10-23T19:41:11.583Z,0.00
2022-10-23T19:43:39.494Z,0.00
2022-10-23T19:46:10.994Z,0.00
2022-10-23T19:48:42.663Z,0.00
2022-10-23T19:51:11.211Z,0.00
2022-10-23T19:53:38.982Z,0.40
2022-10-23T19:56:06.885Z,0.00
2022-10-23T19:58:34.835Z,0.40
2022-10-23T20:01:02.629Z,0.00
2022-10-23T20:03:30.894Z,1.00
2022-10-23T20:05:58.880Z,0.00
2022-10-23T20:08:29.130Z,0.00
2022-10-23T20:11:00.425Z,0.00
2022-10-23T20:13:28.228Z,0.00
2022-10-23T20:15:56.701Z,0.00
2022-10-23T20:18:24.598Z,0.00
2022-10-23T20:20:52.669Z,0.00
2022-10-23T20:23:20.520Z,0.00
2022-10-23T20:25:48.438Z,0.00
2022-10-23T20:28:16.476Z,0.00
2022-10-23T20:30:45.723Z,0.00
2022-10-23T20:33:13.677Z,0.00
2022-10-23T20:35:41.536Z,0.00
2022-10-23T20:38:09.559Z,0.20
2022-10-23T20:40:38.040Z,0.20
2022-10-23T20:43:05.882Z,0.80
2022-10-23T20:45:33.716Z,0.20
2022-10-23T20:48:01.656Z,0.00
2022-10-23T20:50:29.409Z,0.00
2022-10-23T20:52:57.363Z,0.80
2022-10-23T20:55:25.313Z,0.80
2022-10-23T20:57:53.152Z,0.80
2022-10-23T21:00:21.052Z,0.20
2022-10-23T21:02:52.118Z,1.00
2022-10-23T21:05:20.955Z,0.00
2022-10-23T21:07:48.741Z,2.60
2022-10-23T21:10:16.576Z,0.80
2022-10-23T21:12:44.565Z,1.00
2022-10-23T21:15:12.416Z,1.80
2022-10-23T21:17:41.657Z,0.00
2022-10-23T21:20:09.395Z,3.00
2022-10-23T21:22:37.167Z,1.00
2022-10-23T21:25:05.369Z,1.00
2022-10-23T21:27:33.060Z,0.00
2022-10-23T21:30:01.028Z,0.40
2022-10-23T21:32:28.761Z,1.80
2022-10-23T21:34:56.492Z,1.00
2022-10-23T21:37:25.272Z,0.00
2022-10-23T21:39:53.092Z,1.40
2022-10-23T21:42:21.393Z,0.80
2022-10-23T21:44:49.181Z,0.40
2022-10-23T21:47:17.236Z,0.00
2022-10-23T21:49:44.968Z,1.00
2022-10-23T21:52:15.018Z,1.00
2022-10-23T21:54:45.955Z,1.00
2022-10-23T21:57:13.637Z,3.00
2022-10-23T21:59:41.299Z,2.20
2022-10-23T22:02:09.539Z,1.80
2022-10-23T22:04:38.011Z,1.00
2022-10-23T22:07:06.291Z,1.00
2022-10-23T22:09:34.382Z,1.00
2022-10-23T22:12:02.067Z,1.00
2022-10-23T22:14:29.819Z,0.60
2022-10-23T22:16:57.739Z,0.60
2022-10-23T22:19:25.987Z,3.60
2022-10-23T22:21:53.638Z,1.00
2022-10-23T22:24:21.318Z,1.00
2022-10-23T22:26:48.899Z,1.00
2022-10-23T22:29:16.550Z,1.80
2022-10-23T22:31:49.654Z,0.80
2022-10-23T22:34:26.700Z,2.60
2022-10-23T22:37:01.780Z,0.00
2022-10-23T22:39:29.451Z,1.00
2022-10-23T22:41:57.629Z,1.40
2022-10-23T22:44:25.322Z,1.00
2022-10-23T22:46:53.315Z,3.00
2022-10-23T22:49:20.946Z,1.00
2022-10-23T22:51:48.985Z,1.40
2022-10-23T22:54:16.657Z,2.20
2022-10-23T22:56:44.241Z,0.00
2022-10-23T22:59:11.916Z,3.20
2022-10-23T23:01:39.585Z,1.00
2022-10-23T23:04:19.434Z,2.60
2022-10-23T23:06:53.963Z,1.80
2022-10-23T23:09:21.622Z,1.00
2022-10-23T23:11:52.890Z,1.00
2022-10-23T23:14:23.579Z,1.00
2022-10-23T23:16:52.337Z,3.60
2022-10-23T23:19:20.852Z,0.40
2022-10-23T23:21:48.468Z,1.00
2022-10-23T23:24:16.034Z,3.00
2022-10-23T23:26:43.606Z,1.80
2022-10-23T23:29:11.204Z,1.00
2022-10-23T23:31:39.123Z,1.00
2022-10-23T23:34:07.015Z,3.00
2022-10-23T23:36:35.128Z,3.00
2022-10-23T23:41:35.204Z,1.00
2022-10-23T23:44:03.191Z,3.00
2022-10-23T23:46:30.789Z,1.00
2022-10-23T23:48:58.385Z,1.00
2022-10-23T23:51:26.013Z,2.60
2022-10-23T23:53:53.617Z,1.00
2022-10-23T23:56:22.408Z,0.00
2022-10-23T23:58:50.069Z,2.60
